Last 30 Days

Alpine-Roundhouse Top 7880'

Daily Data | America/Los_Angeles
as of 8/12/20 1:11 PM PDT
Date Daily Max Temp (°F) Daily Min Temp (°F) Wind Spd (mph) Daily Max Wind (mph) Max RH (%) Min RH (%) Wet Bulb (°F) Bat Volt Min Day (V)
8/11/20 72.9 54.9 4.3 28.4 55 26 49.5 13.2
8/10/20 77.6 58.3 2.9 22.3 60 21 51.4 13.2
8/9/20 78.0 56.9 2.7 17.1 66 17 53.2 13.2
8/8/20 74.9 53.3 3.3 19.8 75 22 53.2 13.2
8/7/20 72.7 48.5 3.1 19.2 66 28 48.8 13.3
8/6/20 67.4 49.7 5.4 22.0 66 21 45.4 13.1
8/5/20 68.7 51.1 3.8 19.8 63 28 46.1 11.9
8/4/20 73.9 56.3 5.0 19.2 56 20 47.8 13.2
8/3/20 75.8 55.3 3.3 20.1 46 11 45.0 13.2
8/2/20 72.6 56.3 5.5 23.0 38 11 44.6 13.2
8/1/20 74.9 57.9 5.6 18.1 33 12 46.2 13.2
7/31/20 75.3 59.4 4.6 21.0 35 11 46.5 13.1
7/30/20 73.3 58.8 6.4 21.3 47 15 49.3 13.2
7/29/20 75.1 58.3 6.2 18.5 45 10 48.7 13.2
7/28/20 74.8 54.6 2.6 20.3 64 28 51.2 12.3
7/27/20 73.7 56.8 2.1 14.4 58 27 50.2 13.2
7/26/20 75.1 57.4 2.9 22.1 53 20 50.0 13.2
7/25/20 74.6 54.7 2.8 25.1 59 32 50.8 13.2
7/24/20 72.5 51.9 3.1 21.7 66 30 50.1 13.2
7/23/20 71.2 51.5 2.7 18.0 70 39 50.2 13.2
7/22/20 71.2 54.8 5.5 19.4 65 41 51.8 13.2
7/21/20 79.2 61.3 2.0 14.4 61 27 52.8 13.2
7/20/20 79.8 59.2 2.3 20.1 49 21 52.0 13.2
7/19/20 79.7 59.9 2.8 18.5 51 24 51.9 13.2
7/18/20 78.7 59.3 4.0 26.5 52 24 51.9 13.2
7/17/20 77.4 60.5 5.2 18.1 62 23 52.1 13.2
7/16/20 79.7 61.0 2.8 16.4 64 19 53.1 13.2
7/15/20 78.9 57.7 2.7 15.0 68 21 52.5 13.2
7/14/20 75.2 57.0 3.8 19.3 57 27 51.2 13.1
7/13/20 72.1 56.7 4.9 23.5 54 24 48.1 13.2
Max 79.8 61.3 6.4 28.4 75 41 53.2 13.3
Avg - - 3.8 - - - 49.9 -
Min 67.4 48.5 2.0 14.4 33 10 44.6 11.9